createdAt,value
2022-09-17T00:01:33.281Z,6.75
2022-09-17T00:04:04.288Z,6.28
2022-09-17T00:09:00.422Z,8.10
2022-09-17T00:11:33.845Z,6.63
2022-09-17T00:14:03.509Z,8.90
2022-09-17T00:16:39.727Z,10.35
2022-09-17T00:19:12.670Z,7.80
2022-09-17T00:21:41.713Z,8.18
2022-09-17T00:24:12.885Z,6.70
2022-09-17T00:29:07.692Z,8.07
2022-09-17T00:31:35.824Z,7.38
2022-09-17T00:34:05.239Z,7.72
2022-09-17T00:36:35.857Z,7.15
2022-09-17T00:39:04.513Z,9.40
2022-09-17T00:41:33.815Z,11.38
2022-09-17T00:44:22.666Z,6.38
2022-09-17T00:46:50.890Z,6.97
2022-09-17T00:49:30.321Z,7.95
2022-09-17T00:52:10.556Z,7.68
2022-09-17T00:54:41.234Z,6.20
2022-09-17T00:57:09.454Z,8.65
2022-09-17T00:59:37.504Z,6.43
2022-09-17T01:02:05.680Z,6.65
2022-09-17T01:04:33.206Z,6.50
2022-09-17T01:07:10.350Z,6.32
2022-09-17T01:09:43.485Z,7.38
2022-09-17T01:12:13.902Z,5.65
2022-09-17T01:14:47.118Z,7.25
2022-09-17T01:17:44.817Z,6.22
2022-09-17T01:20:38.301Z,7.68
2022-09-17T01:23:27.704Z,8.73
2022-09-17T01:26:28.958Z,6.88
2022-09-17T01:29:05.355Z,5.65
2022-09-17T01:31:53.742Z,7.70
2022-09-17T01:34:36.900Z,6.00
2022-09-17T01:37:06.112Z,5.18
2022-09-17T01:40:01.048Z,6.47
2022-09-17T01:42:39.319Z,5.25
2022-09-17T01:45:25.654Z,4.90
2022-09-17T01:48:03.012Z,6.10
2022-09-17T01:50:38.276Z,4.63
2022-09-17T01:53:08.010Z,4.78
2022-09-17T01:55:39.754Z,5.65
2022-09-17T01:58:25.465Z,6.53
2022-09-17T02:00:59.351Z,6.38
2022-09-17T02:03:52.339Z,4.13
2022-09-17T02:06:30.131Z,4.10
2022-09-17T02:09:01.988Z,5.47
2022-09-17T02:11:30.375Z,5.38
2022-09-17T02:14:06.073Z,4.47
2022-09-17T02:16:36.120Z,4.47
2022-09-17T02:19:13.659Z,7.28
2022-09-17T02:22:18.376Z,9.10
2022-09-17T02:25:06.530Z,6.85
2022-09-17T02:27:46.358Z,7.45
2022-09-17T02:30:14.917Z,6.22
2022-09-17T02:32:42.786Z,5.13
2022-09-17T02:35:13.976Z,5.68
2022-09-17T02:40:11.366Z,5.28
2022-09-17T02:43:07.120Z,6.53
2022-09-17T02:45:59.005Z,5.53
2022-09-17T02:48:58.824Z,8.52
2022-09-17T02:51:41.397Z,6.10
2022-09-17T02:54:27.385Z,6.40
2022-09-17T02:57:25.897Z,5.88
2022-09-17T02:59:59.064Z,5.75
2022-09-17T03:02:32.550Z,6.03
2022-09-17T03:05:01.174Z,7.63
2022-09-17T03:07:29.361Z,5.38
2022-09-17T03:09:56.844Z,5.75
2022-09-17T03:12:24.923Z,5.68
2022-09-17T03:14:52.456Z,5.75
2022-09-17T03:17:19.800Z,10.88
2022-09-17T03:19:47.126Z,6.28
2022-09-17T03:22:14.917Z,8.27
2022-09-17T03:24:42.257Z,9.15
2022-09-17T03:27:09.707Z,5.85
2022-09-17T03:29:37.145Z,6.93
2022-09-17T03:32:05.673Z,6.32
2022-09-17T03:34:33.137Z,8.10
2022-09-17T03:37:00.594Z,8.73
2022-09-17T03:39:29.278Z,6.45
2022-09-17T03:41:56.747Z,6.70
2022-09-17T03:44:24.112Z,5.85
2022-09-17T03:46:51.685Z,5.93
2022-09-17T03:49:19.116Z,5.90
2022-09-17T03:51:46.546Z,6.40
2022-09-17T03:54:14.000Z,9.40
2022-09-17T03:56:41.431Z,7.15
2022-09-17T03:59:08.917Z,8.25
2022-09-17T04:01:36.586Z,6.20
2022-09-17T04:04:04.680Z,7.97
2022-09-17T04:06:32.223Z,7.65
2022-09-17T04:09:01.127Z,7.85
2022-09-17T04:11:28.519Z,10.68
2022-09-17T04:13:55.989Z,7.10
2022-09-17T04:16:23.549Z,7.05
2022-09-17T04:18:51.138Z,8.95
2022-09-17T04:21:18.489Z,12.70
2022-09-17T04:23:45.920Z,8.13
2022-09-17T04:26:13.451Z,9.07
2022-09-17T04:28:40.809Z,9.55
2022-09-17T04:31:08.316Z,8.35
2022-09-17T04:33:36.000Z,9.05
2022-09-17T04:36:04.133Z,9.18
2022-09-17T04:38:31.571Z,8.45
2022-09-17T04:40:59.468Z,11.63
2022-09-17T04:43:26.894Z,11.13
2022-09-17T04:45:54.292Z,9.90
2022-09-17T04:48:21.693Z,10.07
2022-09-17T04:50:49.061Z,10.73
2022-09-17T04:53:18.881Z,12.45
2022-09-17T04:55:46.266Z,9.73
2022-09-17T04:58:13.918Z,9.25
2022-09-17T05:00:42.593Z,12.07
2022-09-17T05:03:10.088Z,9.45
2022-09-17T05:05:37.493Z,11.25
2022-09-17T05:08:04.898Z,10.48
2022-09-17T05:10:32.264Z,10.40
2022-09-17T05:12:59.787Z,11.88
2022-09-17T05:15:27.922Z,10.95
2022-09-17T05:17:55.459Z,11.38
2022-09-17T05:20:22.978Z,11.30
2022-09-17T05:22:52.553Z,9.98
2022-09-17T05:25:25.253Z,10.48
2022-09-17T05:27:53.865Z,10.98
2022-09-17T05:30:21.633Z,9.82
2022-09-17T05:32:49.442Z,8.80
2022-09-17T05:35:16.848Z,10.65
2022-09-17T05:37:44.306Z,10.13
2022-09-17T05:40:11.811Z,10.82
2022-09-17T05:42:39.282Z,11.55
2022-09-17T05:45:07.346Z,13.10
2022-09-17T05:47:35.523Z,11.55
2022-09-17T05:50:03.008Z,13.23
2022-09-17T05:52:30.496Z,11.07
2022-09-17T05:54:57.889Z,12.10
2022-09-17T05:57:25.382Z,13.38
2022-09-17T05:59:52.841Z,13.10
2022-09-17T06:02:20.356Z,12.30
2022-09-17T06:04:47.736Z,11.18
2022-09-17T06:07:15.127Z,13.60
2022-09-17T06:09:42.501Z,12.85
2022-09-17T06:12:09.936Z,13.10
2022-09-17T06:14:37.522Z,12.45
2022-09-17T06:17:05.257Z,11.90
2022-09-17T06:19:32.722Z,10.95
2022-09-17T06:22:00.198Z,11.35
2022-09-17T06:24:28.115Z,9.70
2022-09-17T06:26:55.490Z,13.13
2022-09-17T06:29:22.888Z,13.60
2022-09-17T06:31:50.550Z,10.30
2022-09-17T06:34:18.235Z,13.68
2022-09-17T06:36:45.843Z,13.60
2022-09-17T06:39:13.395Z,11.13
2022-09-17T06:41:43.446Z,11.10
2022-09-17T06:44:10.995Z,9.95
2022-09-17T06:46:38.474Z,10.98
2022-09-17T06:49:06.043Z,11.68
2022-09-17T06:51:33.867Z,9.23
2022-09-17T06:54:01.759Z,8.05
2022-09-17T06:56:29.152Z,6.18
2022-09-17T06:58:56.619Z,8.43
2022-09-17T07:01:24.073Z,9.43
2022-09-17T07:03:51.481Z,8.50
2022-09-17T07:06:18.950Z,5.93
2022-09-17T07:08:47.237Z,7.97
2022-09-17T07:11:16.077Z,6.38
2022-09-17T07:13:43.563Z,5.25
2022-09-17T07:16:11.468Z,5.47
2022-09-17T07:18:40.248Z,5.20
2022-09-17T07:21:10.044Z,7.65
2022-09-17T07:23:37.924Z,5.82
2022-09-17T07:26:08.248Z,5.78
2022-09-17T07:28:38.430Z,4.85
2022-09-17T07:31:06.484Z,4.70
2022-09-17T07:33:35.634Z,3.67
2022-09-17T07:36:09.033Z,3.88
2022-09-17T07:38:36.445Z,4.15
2022-09-17T07:41:05.036Z,4.10
2022-09-17T07:43:34.633Z,4.60
2022-09-17T07:46:05.000Z,5.63
2022-09-17T07:48:33.279Z,3.80
2022-09-17T07:51:00.803Z,5.63
2022-09-17T07:53:28.408Z,3.72
2022-09-17T07:56:01.914Z,7.32
2022-09-17T07:58:32.146Z,3.85
2022-09-17T08:01:04.529Z,5.43
2022-09-17T08:03:32.002Z,3.50
2022-09-17T08:06:10.131Z,4.93
2022-09-17T08:08:39.544Z,6.35
2022-09-17T08:11:08.251Z,5.03
2022-09-17T08:13:36.494Z,3.95
2022-09-17T08:16:06.758Z,3.20
2022-09-17T08:18:35.830Z,4.07
2022-09-17T08:21:05.708Z,5.10
2022-09-17T08:23:36.024Z,4.35
2022-09-17T08:26:06.184Z,4.03
2022-09-17T08:28:33.502Z,4.40
2022-09-17T08:31:10.184Z,3.78
2022-09-17T08:33:39.551Z,4.05
2022-09-17T08:36:08.965Z,2.83
2022-09-17T08:38:38.392Z,5.65
2022-09-17T08:41:15.143Z,4.43
2022-09-17T08:44:06.346Z,3.78
2022-09-17T08:46:47.416Z,3.75
2022-09-17T08:52:10.733Z,3.20
2022-09-17T08:54:58.143Z,1.77
2022-09-17T08:57:50.444Z,3.88
2022-09-17T09:00:20.847Z,3.78
2022-09-17T09:03:28.416Z,4.07
2022-09-17T09:05:56.603Z,3.75
2022-09-17T09:08:58.099Z,4.20
2022-09-17T09:11:28.037Z,2.67
2022-09-17T09:14:14.847Z,2.80
2022-09-17T09:16:46.001Z,3.08
2022-09-17T09:21:54.894Z,4.18
2022-09-17T09:24:33.208Z,2.78
2022-09-17T09:27:28.255Z,2.60
2022-09-17T09:29:58.652Z,3.15
2022-09-17T09:32:59.322Z,3.92
2022-09-17T09:35:31.421Z,5.07
2022-09-17T09:38:04.627Z,3.53
2022-09-17T09:40:36.347Z,5.82
2022-09-17T09:43:17.933Z,3.28
2022-09-17T09:46:00.561Z,5.13
2022-09-17T09:49:19.137Z,3.33
2022-09-17T09:52:03.723Z,3.40
2022-09-17T09:54:49.350Z,5.32
2022-09-17T09:57:22.845Z,6.00
2022-09-17T09:59:50.193Z,4.85
2022-09-17T10:02:17.967Z,3.63
2022-09-17T10:04:46.749Z,4.00
2022-09-17T10:07:15.692Z,2.73
2022-09-17T10:09:46.463Z,6.00
2022-09-17T10:12:13.841Z,3.58
2022-09-17T10:14:48.472Z,3.88
2022-09-17T10:17:22.025Z,4.53
2022-09-17T10:20:11.397Z,5.30
2022-09-17T10:22:44.791Z,2.95
2022-09-17T10:25:42.198Z,8.70
2022-09-17T10:28:33.103Z,6.47
2022-09-17T10:31:08.611Z,2.83
2022-09-17T10:33:55.233Z,3.30
2022-09-17T10:36:42.360Z,3.25
2022-09-17T10:39:20.212Z,3.13
2022-09-17T10:42:14.120Z,3.80
2022-09-17T10:44:58.746Z,3.05
2022-09-17T10:47:32.348Z,3.13
2022-09-17T10:50:21.256Z,4.00
2022-09-17T10:52:52.934Z,5.15
2022-09-17T10:55:33.609Z,4.15
2022-09-17T10:58:09.856Z,3.75
2022-09-17T11:00:44.253Z,4.30
2022-09-17T11:03:41.576Z,2.58
2022-09-17T11:06:33.691Z,4.03
2022-09-17T11:09:36.443Z,3.45
2022-09-17T11:12:31.173Z,3.25
2022-09-17T11:15:07.504Z,2.60
2022-09-17T11:17:50.205Z,3.80
2022-09-17T11:20:41.446Z,6.15
2022-09-17T11:26:01.094Z,3.35
2022-09-17T11:28:54.054Z,4.15
2022-09-17T11:31:49.754Z,4.05
2022-09-17T11:34:32.775Z,2.22
2022-09-17T11:37:21.243Z,3.72
2022-09-17T11:39:58.536Z,3.35
2022-09-17T11:42:32.877Z,3.58
2022-09-17T11:45:33.513Z,4.03
2022-09-17T11:48:04.349Z,3.40
2022-09-17T11:50:57.329Z,2.95
2022-09-17T11:53:53.804Z,1.70
2022-09-17T11:56:43.303Z,3.60
2022-09-17T11:59:29.889Z,1.58
2022-09-17T12:02:02.556Z,3.42
2022-09-17T12:04:42.848Z,3.38
2022-09-17T12:07:30.709Z,2.97
2022-09-17T12:10:09.701Z,1.90
2022-09-17T12:12:50.537Z,4.65
2022-09-17T12:15:25.925Z,3.28
2022-09-17T12:18:37.521Z,2.45
2022-09-17T12:21:10.618Z,2.95
2022-09-17T13:42:08.209Z,4.95
2022-09-17T13:44:39.605Z,2.67
2022-09-17T13:47:25.318Z,2.95
2022-09-17T13:50:02.563Z,4.32
2022-09-17T13:52:50.599Z,4.32
2022-09-17T13:55:51.923Z,4.10
2022-09-17T14:00:49.587Z,13.55
2022-09-17T14:03:30.889Z,7.70
2022-09-17T14:06:19.627Z,5.63
2022-09-17T14:08:47.730Z,5.03
2022-09-17T14:11:28.275Z,2.88
2022-09-17T14:14:04.908Z,3.90
2022-09-17T14:16:42.617Z,3.13
2022-09-17T14:19:16.248Z,13.82
2022-09-17T14:21:59.759Z,5.40
2022-09-17T14:24:44.570Z,8.68
2022-09-17T14:27:19.058Z,9.77
2022-09-17T14:30:22.605Z,6.40
2022-09-17T14:33:04.989Z,6.85
2022-09-17T14:35:49.390Z,20.45
2022-09-17T14:38:22.784Z,3.90
2022-09-17T14:40:54.033Z,4.35
2022-09-17T14:43:53.908Z,4.28
2022-09-17T14:46:21.282Z,3.83
2022-09-17T14:48:49.123Z,5.35
2022-09-17T14:51:19.864Z,6.68
2022-09-17T14:53:49.071Z,3.42
2022-09-17T14:56:23.361Z,5.03
2022-09-17T15:23:49.074Z,5.18
2022-09-17T15:26:22.144Z,5.22
2022-09-17T15:28:50.679Z,5.85
2022-09-17T15:31:19.724Z,6.00
2022-09-17T15:33:47.613Z,8.90
2022-09-17T15:36:22.815Z,4.80
2022-09-17T15:38:51.507Z,5.88
2022-09-17T15:41:20.782Z,13.88
2022-09-17T15:43:49.558Z,7.18
2022-09-17T15:46:29.014Z,11.30
2022-09-17T15:48:59.425Z,12.77
2022-09-17T15:51:32.578Z,14.98
2022-09-17T15:54:05.626Z,11.10
2022-09-17T15:56:35.726Z,7.82
2022-09-17T15:59:23.179Z,8.13
2022-09-17T16:01:54.685Z,20.42
2022-09-17T16:04:30.838Z,21.58
2022-09-17T16:07:27.282Z,9.93
2022-09-17T16:09:54.755Z,14.23
2022-09-17T16:12:25.460Z,9.85
2022-09-17T16:14:55.325Z,6.50
2022-09-17T16:17:43.152Z,9.95
2022-09-17T16:20:24.846Z,6.22
2022-09-17T16:22:53.477Z,12.00
2022-09-17T16:25:30.579Z,10.60
2022-09-17T16:28:10.604Z,10.82
2022-09-17T16:30:40.636Z,6.95
2022-09-17T16:33:11.622Z,12.27
2022-09-17T16:35:39.095Z,9.23
2022-09-17T16:38:06.692Z,9.48
2022-09-17T16:40:34.417Z,10.75
2022-09-17T16:43:05.072Z,15.18
2022-09-17T16:45:32.483Z,13.45
2022-09-17T16:48:00.013Z,12.50
2022-09-17T16:50:27.564Z,9.25
2022-09-17T16:52:55.199Z,9.55
2022-09-17T16:55:22.559Z,11.13
2022-09-17T16:57:49.997Z,9.65
2022-09-17T17:00:20.968Z,8.52
2022-09-17T17:02:57.948Z,15.02
2022-09-17T17:05:26.471Z,13.25
2022-09-17T17:07:55.379Z,9.02
2022-09-17T17:10:23.786Z,15.98
2022-09-17T17:12:51.118Z,11.30
2022-09-17T17:15:19.355Z,13.88
2022-09-17T17:17:46.815Z,11.48
2022-09-17T17:20:14.591Z,8.65
2022-09-17T17:22:43.632Z,15.30
2022-09-17T17:25:15.108Z,14.13
2022-09-17T17:27:42.531Z,10.23
2022-09-17T17:30:11.351Z,12.95
2022-09-17T17:32:38.793Z,13.85
2022-09-17T17:35:07.113Z,9.48
2022-09-17T17:37:34.586Z,13.73
2022-09-17T17:40:06.906Z,10.77
2022-09-17T17:42:38.217Z,13.13
2022-09-17T17:45:07.286Z,17.05
2022-09-17T17:47:35.061Z,16.55
2022-09-17T17:50:02.947Z,13.20
2022-09-17T17:52:30.365Z,13.35
2022-09-17T17:54:57.835Z,17.00
2022-09-17T17:57:25.414Z,19.95
2022-09-17T17:59:52.763Z,22.33
2022-09-17T18:02:20.172Z,15.45
2022-09-17T18:04:47.765Z,29.38
2022-09-17T18:07:15.098Z,16.55
2022-09-17T18:09:42.654Z,22.85
2022-09-17T18:12:10.083Z,25.20
2022-09-17T18:14:37.436Z,24.67
2022-09-17T18:17:05.180Z,17.27
2022-09-17T18:19:32.591Z,15.77
2022-09-17T18:22:00.059Z,19.83
2022-09-17T18:24:27.461Z,20.05
2022-09-17T18:26:54.861Z,15.95
2022-09-17T18:29:22.262Z,18.40
2022-09-17T18:31:49.706Z,22.30
2022-09-17T18:34:17.484Z,27.48
2022-09-17T18:36:50.289Z,22.00
2022-09-17T18:42:08.226Z,25.77
2022-09-17T18:44:35.677Z,22.15
2022-09-17T18:47:04.390Z,20.90
2022-09-17T18:49:31.849Z,17.13
2022-09-17T18:51:59.258Z,24.25
2022-09-17T18:54:26.570Z,15.52
2022-09-17T18:56:53.954Z,14.55
2022-09-17T18:59:21.363Z,19.38
2022-09-17T19:01:49.154Z,18.80
2022-09-17T19:04:16.625Z,15.90
2022-09-17T19:06:44.041Z,19.45
2022-09-17T19:09:11.874Z,17.13
2022-09-17T19:11:39.198Z,21.85
2022-09-17T19:14:10.157Z,15.27
2022-09-17T19:16:37.552Z,14.10
2022-09-17T19:19:04.887Z,12.05
2022-09-17T19:21:32.314Z,9.95
2022-09-17T19:23:59.685Z,11.15
2022-09-17T19:26:27.730Z,9.65
2022-09-17T19:29:03.488Z,8.93
2022-09-17T19:31:30.864Z,9.48
2022-09-17T19:33:59.106Z,12.98
2022-09-17T19:36:26.696Z,8.52
2022-09-17T19:38:55.105Z,15.68
2022-09-17T19:41:23.374Z,10.27
2022-09-17T19:43:55.113Z,20.27
2022-09-17T19:46:25.484Z,21.88
2022-09-17T19:48:55.493Z,14.95
2022-09-17T19:51:25.687Z,10.40
2022-09-17T19:53:53.363Z,12.32
2022-09-17T19:56:23.109Z,8.73
2022-09-17T19:58:51.193Z,15.27
2022-09-17T20:01:19.188Z,11.45
2022-09-17T20:03:46.841Z,11.27
2022-09-17T20:06:16.952Z,10.38
2022-09-17T20:08:47.199Z,11.10
2022-09-17T20:11:15.809Z,12.93
2022-09-17T20:13:43.746Z,13.35
2022-09-17T20:16:14.865Z,11.05
2022-09-17T20:18:43.992Z,8.25
2022-09-17T20:21:14.146Z,6.90
2022-09-17T20:23:41.882Z,6.28
2022-09-17T20:26:09.330Z,7.35
2022-09-17T20:28:36.781Z,8.23
2022-09-17T20:31:07.108Z,10.48
2022-09-17T20:33:34.739Z,10.48
2022-09-17T20:36:07.700Z,7.40
2022-09-17T20:41:23.148Z,9.05
2022-09-17T20:43:52.687Z,7.30
2022-09-17T20:46:27.607Z,9.13
2022-09-17T20:48:57.795Z,7.53
2022-09-17T20:51:28.670Z,6.28
2022-09-17T20:53:57.461Z,7.38
2022-09-17T20:56:31.580Z,9.45
2022-09-17T20:59:14.492Z,13.43
2022-09-17T21:01:45.328Z,9.07
2022-09-17T21:04:16.190Z,11.80
2022-09-17T21:06:44.441Z,10.98
2022-09-17T21:09:15.988Z,11.60
2022-09-17T21:11:47.845Z,9.27
2022-09-17T21:14:16.071Z,9.40
2022-09-17T21:16:44.122Z,8.85
2022-09-17T21:19:13.281Z,8.45
2022-09-17T21:21:40.647Z,7.78
2022-09-17T21:24:10.273Z,8.77
2022-09-17T21:26:37.799Z,9.57
2022-09-17T21:29:05.332Z,10.00
2022-09-17T21:31:34.912Z,11.55
2022-09-17T21:34:04.769Z,9.02
2022-09-17T21:36:34.744Z,8.23
2022-09-17T21:39:13.530Z,7.55
2022-09-17T21:41:42.934Z,10.45
2022-09-17T21:44:12.049Z,9.27
2022-09-17T21:46:40.883Z,8.20
2022-09-17T21:49:08.716Z,10.15
2022-09-17T21:51:38.781Z,11.88
2022-09-17T21:54:11.670Z,9.32
2022-09-17T21:56:39.328Z,8.63
2022-09-17T21:59:08.820Z,7.88
2022-09-17T22:01:46.866Z,9.00
2022-09-17T22:04:19.957Z,8.63
2022-09-17T22:06:49.319Z,9.75
2022-09-17T22:09:25.290Z,12.63
2022-09-17T22:11:53.443Z,14.90
2022-09-17T22:14:23.837Z,10.57
2022-09-17T22:16:57.105Z,8.80
2022-09-17T22:19:26.131Z,8.75
2022-09-17T22:21:55.438Z,9.98
2022-09-17T22:24:23.768Z,10.80
2022-09-17T22:26:57.265Z,7.80
2022-09-17T22:29:27.148Z,8.48
2022-09-17T22:31:54.532Z,11.23
2022-09-17T22:34:23.208Z,8.75
2022-09-17T22:36:50.921Z,10.40
2022-09-17T22:39:21.451Z,9.13
2022-09-17T22:41:49.270Z,11.10
2022-09-17T22:44:19.151Z,12.40
2022-09-17T22:46:51.748Z,12.27
2022-09-17T22:49:19.996Z,12.00
2022-09-17T22:51:47.617Z,11.80
2022-09-17T22:54:16.984Z,9.73
2022-09-17T22:56:45.958Z,9.15
2022-09-17T22:59:13.348Z,8.52
2022-09-17T23:01:41.363Z,14.45
2022-09-17T23:04:09.715Z,10.23
2022-09-17T23:06:38.967Z,12.98
2022-09-17T23:09:07.043Z,12.35
2022-09-17T23:11:37.822Z,11.57
2022-09-17T23:14:11.689Z,10.93
2022-09-17T23:16:45.648Z,12.52
2022-09-17T23:19:14.012Z,10.43
2022-09-17T23:21:41.938Z,10.10
2022-09-17T23:24:20.363Z,10.07
2022-09-17T23:26:48.602Z,9.98
2022-09-17T23:29:16.426Z,13.48
2022-09-17T23:31:43.833Z,14.25
2022-09-17T23:34:11.238Z,11.38
2022-09-17T23:36:39.934Z,14.38
2022-09-17T23:39:09.255Z,11.93
2022-09-17T23:41:43.361Z,10.23
2022-09-17T23:44:15.393Z,11.75
2022-09-17T23:46:44.959Z,10.35
2022-09-17T23:49:13.675Z,8.55
2022-09-17T23:51:41.651Z,10.00
2022-09-17T23:54:09.237Z,10.73
2022-09-17T23:56:36.923Z,10.73
2022-09-17T23:59:04.919Z,12.43
